• Join FlightAware (Why Join?)
  • Login
  • US Flag 
02:59PM EDT


 

Airport Tracker/Info


-or-


 

Live Flight TrackerFlight Track Log ✈ N53NW ✈ 31-Aug-2013 ✈ KCHS - KMCO

Flight Track Log - Related Links

Times and Time Zones

All times are in EDT time to prevent confusion due to time zone crossing. See the N53NW flight status page for this flight to view local times or setup timezone preferences in your user account.

Time Position Orientation Groundspeed Altitude Reporting Facility
EDT Latitude Longitude Course Direction KTS MPH feet Rate Location/Type
10:46AM 32.8431 -80.0839 211° Southwest 228 262 2,500  Level Jacksonville Center
10:47AM 32.7814 -80.1278 211° Southwest 265 305 5,600 3,000 Climbing Jacksonville Center
10:48AM 32.7219 -80.1739 213° Southwest 270 311 8,600 2,700 Climbing Jacksonville Center
10:49AM 32.6497 -80.2206 211° Southwest 275 316 11,000 2,400 Climbing Jacksonville Center
10:50AM 32.5669 -80.2453 194° South 294 338 13,400 2,160 Climbing Jacksonville Center
10:51AM 32.4817 -80.2672 192° South 304 350 15,400 1,980 Climbing Jacksonville Center
10:52AM 32.3944 -80.2919 193° South 322 371 17,400 1,920 Climbing Jacksonville Center
10:53AM 32.3053 -80.3167 193° South 327 376 19,300 1,800 Climbing Jacksonville Center
10:54AM 32.2181 -80.3411 193° South 327 376 21,100 1,800 Climbing Jacksonville Center
10:55AM 32.1289 -80.3658 193° South 327 376 22,900 1,800 Climbing Jacksonville Center
10:56AM 32.0436 -80.3903 194° South 327 376 24,700 1,500 Climbing Jacksonville Center
10:57AM 31.9522 -80.4147 193° South 333 383 26,000 600 Climbing Jacksonville Center
10:58AM 31.8506 -80.4394 192° South 362 417 26,000  Level Jacksonville Center
10:59AM 31.7675 -80.4636 194° South 361 415 26,000  Level Jacksonville Center
11:00AM 31.6553 -80.4933 193° South 367 422 26,000  Level Jacksonville Center
11:01AM 31.5639 -80.5203 194° South 374 430 26,000  Level Jacksonville Center
11:02AM 31.4600 -80.5447 191° South 374 430 26,000  Level Jacksonville Center
11:03AM 31.3644 -80.5764 196° South 374 430 26,000  Level Jacksonville Center
11:04AM 31.2628 -80.6008 192° South 369 425 26,000  Level Jacksonville Center
11:05AM 31.1567 -80.6253 191° South 383 441 26,000  Level Jacksonville Center
11:06AM 31.0569 -80.6567 195° South 383 441 26,000  Level Jacksonville Center
11:07AM 30.9531 -80.6808 191° South 377 434 26,000  Level Jacksonville Center
11:08AM 30.8492 -80.7100 194° South 377 434 26,000  Level Jacksonville Center
11:09AM 30.7453 -80.7389 193° South 377 434 26,000  Level Jacksonville Center
11:10AM 30.6456 -80.7653 193° South 377 434 26,000  Level Jacksonville Center
11:11AM 30.5414 -80.7917 192° South 377 434 26,000  Level Jacksonville Center
11:12AM 30.4397 -80.8181 193° South 377 434 26,000 -60 Level Jacksonville Center
11:13AM 30.3378 -80.8444 193° South 377 434 25,900 -120 Descending Jacksonville Center
11:14AM 30.2317 -80.8731 193° South 377 434 25,800 -660 Descending Jacksonville Center
11:15AM 30.1297 -80.8992 192° South 377 434 24,600 -900 Descending Jacksonville Center
11:16AM 30.0258 -80.9278 193° South 377 434 24,000 -300 Descending Jacksonville Center
11:17AM 29.9239 -80.9539 193° South 377 434 24,000 -600 Level Jacksonville Center
11:18AM 29.8200 -80.9728 189° South 377 434 22,800 -1,380 Descending Jacksonville Center
11:19AM 29.7178 -80.9867 187° South 377 434 21,300 -1,500 Descending Jacksonville Center
11:20AM 29.6219 -81.0028 188° South 360 414 19,800 -1,500 Descending Jacksonville Center
11:21AM 29.5283 -81.0167 187° South 354 407 18,300 -1,500 Descending Jacksonville Center
11:22AM 29.4283 -81.0303 187° South 338 389 16,800 -1,440 Descending Jacksonville Center
11:23AM 29.3408 -81.0439 188° South 323 372 15,500 -1,200 Descending Jacksonville Center
11:24AM 29.2533 -81.0575 188° South 317 365 14,400 -1,140 Descending Jacksonville Center
11:25AM 29.1722 -81.0708 188° South 311 358 13,300 -1,140 Descending Jacksonville Center
11:26AM 29.0908 -81.0794 185° South 305 351 12,200 -720 Descending Jacksonville Center
11:27AM 29.0139 -81.0928 189° South 292 336 11,900 -600 Descending Jacksonville Center
11:28AM 28.9364 -81.0800 172° South 292 336 11,000 -1,080 Descending Jacksonville Center
11:29AM 28.8589 -81.0647 170° South 292 336 9,800 -1,320 Descending Jacksonville Center
11:30AM 28.7883 -81.0781 189° South 262 302 8,400 -1,680 Descending Jacksonville Center
11:31AM 28.7622 -81.1567 249° West 223 257 6,500 -2,100 Descending Jacksonville Center
11:32AM 28.7317 -81.2233 242° Southwest 235 270 4,300 -1,380 Descending Jacksonville Center
11:33AM 28.7011 -81.2831 240° Southwest 235 270 3,800 -720 Descending Jacksonville Center
11:34AM 28.6536 -81.3075 204° Southwest 196 226 2,900 -720 Descending Jacksonville Center
11:35AM 28.6058 -81.3247 198° South 191 220 2,400 -360 Descending Jacksonville Center
11:36AM 28.5500 -81.3333 188° South 150 173 2,200 -480 Descending Orlando TRACON
11:37AM 28.5167 -81.3333 180° South 130 150 1,500 -720 Descending Orlando TRACON
11:38AM 28.4833 -81.3333 180° South 112 129 900 -600 Descending Orlando TRACON
11:39AM 28.4667 -81.3333 180° South 110 127 400 -600 Descending Orlando TRACON
11:41AM 28.4294 -81.3090 175° South  Level Estimated
11:48AM 28.4294 -81.3090 175° South  Level Estimated
11:49AM 28.4294 -81.3090 175° South  Level Estimated
11:50AM 28.4294 -81.3090 175° South  Level Estimated